sensor_id;sensor_type;location;lat;lon;timestamp;P1;durP1;ratioP1;P2;durP2;ratioP2
16346;SDS011;8283;48.504;13.734;2023-02-13T00:00:08;10.40;;;6.80;;
16346;SDS011;8283;48.504;13.734;2023-02-13T00:02:54;12.90;;;7.25;;
16346;SDS011;8283;48.504;13.734;2023-02-13T00:05:40;10.82;;;7.18;;
16346;SDS011;8283;48.504;13.734;2023-02-13T00:08:24;10.00;;;7.22;;
16346;SDS011;8283;48.504;13.734;2023-02-13T00:11:09;13.32;;;7.80;;
16346;SDS011;8283;48.504;13.734;2023-02-13T00:13:54;14.57;;;7.85;;
16346;SDS011;8283;48.504;13.734;2023-02-13T00:16:38;9.88;;;6.72;;
16346;SDS011;8283;48.504;13.734;2023-02-13T00:19:23;12.27;;;7.88;;
16346;SDS011;8283;48.504;13.734;2023-02-13T00:22:09;11.30;;;7.45;;
16346;SDS011;8283;48.504;13.734;2023-02-13T00:24:54;12.55;;;7.60;;
16346;SDS011;8283;48.504;13.734;2023-02-13T00:27:39;13.27;;;7.90;;
16346;SDS011;8283;48.504;13.734;2023-02-13T00:30:23;11.45;;;7.20;;
16346;SDS011;8283;48.504;13.734;2023-02-13T00:33:08;10.88;;;7.47;;
16346;SDS011;8283;48.504;13.734;2023-02-13T00:36:00;13.85;;;8.00;;
16346;SDS011;8283;48.504;13.734;2023-02-13T00:38:46;10.77;;;7.03;;
16346;SDS011;8283;48.504;13.734;2023-02-13T00:41:31;12.20;;;7.05;;
16346;SDS011;8283;48.504;13.734;2023-02-13T00:44:16;13.20;;;7.45;;
16346;SDS011;8283;48.504;13.734;2023-02-13T00:47:00;10.82;;;7.20;;
16346;SDS011;8283;48.504;13.734;2023-02-13T00:49:44;10.07;;;6.55;;
16346;SDS011;8283;48.504;13.734;2023-02-13T00:52:29;14.05;;;8.05;;
16346;SDS011;8283;48.504;13.734;2023-02-13T00:55:13;11.02;;;6.90;;
16346;SDS011;8283;48.504;13.734;2023-02-13T00:57:58;13.98;;;7.53;;
16346;SDS011;8283;48.504;13.734;2023-02-13T01:00:42;11.13;;;7.28;;
16346;SDS011;8283;48.504;13.734;2023-02-13T01:03:27;11.32;;;7.78;;
16346;SDS011;8283;48.504;13.734;2023-02-13T01:06:12;11.38;;;7.10;;
16346;SDS011;8283;48.504;13.734;2023-02-13T01:08:56;13.38;;;7.30;;
16346;SDS011;8283;48.504;13.734;2023-02-13T01:11:42;11.43;;;6.70;;
16346;SDS011;8283;48.504;13.734;2023-02-13T01:14:26;13.70;;;8.00;;
16346;SDS011;8283;48.504;13.734;2023-02-13T01:17:11;10.52;;;7.15;;
16346;SDS011;8283;48.504;13.734;2023-02-13T01:19:59;10.85;;;6.55;;
16346;SDS011;8283;48.504;13.734;2023-02-13T01:22:43;10.63;;;5.95;;
16346;SDS011;8283;48.504;13.734;2023-02-13T01:25:28;11.25;;;7.35;;
16346;SDS011;8283;48.504;13.734;2023-02-13T01:28:14;12.25;;;8.23;;
16346;SDS011;8283;48.504;13.734;2023-02-13T01:30:58;11.10;;;7.53;;
16346;SDS011;8283;48.504;13.734;2023-02-13T01:33:43;11.73;;;7.75;;
16346;SDS011;8283;48.504;13.734;2023-02-13T01:36:28;10.15;;;6.40;;
16346;SDS011;8283;48.504;13.734;2023-02-13T01:39:12;11.88;;;7.80;;
16346;SDS011;8283;48.504;13.734;2023-02-13T01:41:57;12.35;;;7.57;;
16346;SDS011;8283;48.504;13.734;2023-02-13T01:44:51;12.43;;;8.10;;
16346;SDS011;8283;48.504;13.734;2023-02-13T01:47:42;12.68;;;7.13;;
16346;SDS011;8283;48.504;13.734;2023-02-13T01:50:31;11.38;;;6.95;;
16346;SDS011;8283;48.504;13.734;2023-02-13T01:53:44;11.13;;;8.00;;
16346;SDS011;8283;48.504;13.734;2023-02-13T01:56:36;10.38;;;6.00;;
16346;SDS011;8283;48.504;13.734;2023-02-13T01:59:33;10.00;;;6.35;;
16346;SDS011;8283;48.504;13.734;2023-02-13T02:02:23;12.10;;;7.63;;
16346;SDS011;8283;48.504;13.734;2023-02-13T02:05:09;10.60;;;7.40;;
16346;SDS011;8283;48.504;13.734;2023-02-13T02:07:55;10.13;;;6.13;;
16346;SDS011;8283;48.504;13.734;2023-02-13T02:10:42;11.43;;;6.82;;
16346;SDS011;8283;48.504;13.734;2023-02-13T02:13:27;10.57;;;6.70;;
16346;SDS011;8283;48.504;13.734;2023-02-13T02:19:04;9.95;;;5.85;;
16346;SDS011;8283;48.504;13.734;2023-02-13T02:22:16;10.35;;;7.00;;
16346;SDS011;8283;48.504;13.734;2023-02-13T02:31:07;11.40;;;7.22;;
16346;SDS011;8283;48.504;13.734;2023-02-13T02:49:06;11.90;;;6.90;;
16346;SDS011;8283;48.504;13.734;2023-02-13T02:52:17;9.90;;;6.47;;
16346;SDS011;8283;48.504;13.734;2023-02-13T02:58:13;9.65;;;6.03;;
16346;SDS011;8283;48.504;13.734;2023-02-13T03:01:23;11.00;;;6.28;;
16346;SDS011;8283;48.504;13.734;2023-02-13T03:04:50;11.55;;;7.13;;
16346;SDS011;8283;48.504;13.734;2023-02-13T03:07:57;11.20;;;7.20;;
16346;SDS011;8283;48.504;13.734;2023-02-13T03:10:42;10.43;;;6.82;;
16346;SDS011;8283;48.504;13.734;2023-02-13T03:13:46;10.77;;;6.68;;
16346;SDS011;8283;48.504;13.734;2023-02-13T03:16:32;12.93;;;6.93;;
16346;SDS011;8283;48.504;13.734;2023-02-13T03:23:10;10.43;;;6.60;;
16346;SDS011;8283;48.504;13.734;2023-02-13T03:29:03;9.75;;;6.50;;
16346;SDS011;8283;48.504;13.734;2023-02-13T03:45:20;10.80;;;6.95;;
16346;SDS011;8283;48.504;13.734;2023-02-13T03:48:30;11.25;;;7.18;;
16346;SDS011;8283;48.504;13.734;2023-02-13T03:51:41;10.82;;;6.82;;
16346;SDS011;8283;48.504;13.734;2023-02-13T03:54:37;11.57;;;6.78;;
16346;SDS011;8283;48.504;13.734;2023-02-13T03:57:48;9.43;;;7.03;;
16346;SDS011;8283;48.504;13.734;2023-02-13T04:00:57;10.13;;;6.65;;
16346;SDS011;8283;48.504;13.734;2023-02-13T04:03:50;13.00;;;7.30;;
16346;SDS011;8283;48.504;13.734;2023-02-13T04:06:45;9.50;;;6.68;;
16346;SDS011;8283;48.504;13.734;2023-02-13T04:09:40;11.48;;;7.22;;
16346;SDS011;8283;48.504;13.734;2023-02-13T04:12:30;12.10;;;7.13;;
16346;SDS011;8283;48.504;13.734;2023-02-13T04:15:33;11.73;;;7.68;;
16346;SDS011;8283;48.504;13.734;2023-02-13T04:18:23;9.95;;;6.25;;
16346;SDS011;8283;48.504;13.734;2023-02-13T04:21:11;12.32;;;6.97;;
16346;SDS011;8283;48.504;13.734;2023-02-13T04:23:55;13.40;;;8.18;;
16346;SDS011;8283;48.504;13.734;2023-02-13T04:26:41;10.82;;;7.25;;
16346;SDS011;8283;48.504;13.734;2023-02-13T04:29:26;11.43;;;6.80;;
16346;SDS011;8283;48.504;13.734;2023-02-13T04:32:11;10.95;;;6.80;;
16346;SDS011;8283;48.504;13.734;2023-02-13T04:34:56;11.07;;;7.65;;
16346;SDS011;8283;48.504;13.734;2023-02-13T04:37:41;10.85;;;7.60;;
16346;SDS011;8283;48.504;13.734;2023-02-13T04:40:26;12.05;;;7.63;;
16346;SDS011;8283;48.504;13.734;2023-02-13T04:43:10;10.70;;;7.28;;
16346;SDS011;8283;48.504;13.734;2023-02-13T04:45:55;11.82;;;7.35;;
16346;SDS011;8283;48.504;13.734;2023-02-13T04:48:39;10.52;;;6.78;;
16346;SDS011;8283;48.504;13.734;2023-02-13T04:51:23;12.90;;;7.90;;
16346;SDS011;8283;48.504;13.734;2023-02-13T04:54:09;14.55;;;6.97;;
16346;SDS011;8283;48.504;13.734;2023-02-13T04:56:54;10.45;;;7.07;;
16346;SDS011;8283;48.504;13.734;2023-02-13T04:59:38;14.07;;;8.88;;
16346;SDS011;8283;48.504;13.734;2023-02-13T05:02:23;11.05;;;7.28;;
16346;SDS011;8283;48.504;13.734;2023-02-13T05:05:08;13.05;;;8.75;;
16346;SDS011;8283;48.504;13.734;2023-02-13T05:07:52;10.13;;;7.07;;
16346;SDS011;8283;48.504;13.734;2023-02-13T05:10:36;10.88;;;7.25;;
16346;SDS011;8283;48.504;13.734;2023-02-13T05:13:20;14.77;;;8.52;;
16346;SDS011;8283;48.504;13.734;2023-02-13T05:16:05;12.23;;;7.35;;
16346;SDS011;8283;48.504;13.734;2023-02-13T05:18:50;12.32;;;8.93;;
16346;SDS011;8283;48.504;13.734;2023-02-13T05:21:38;15.15;;;9.50;;
16346;SDS011;8283;48.504;13.734;2023-02-13T05:24:41;12.40;;;7.03;;
16346;SDS011;8283;48.504;13.734;2023-02-13T05:27:25;10.27;;;6.97;;
16346;SDS011;8283;48.504;13.734;2023-02-13T05:30:10;12.35;;;7.97;;
16346;SDS011;8283;48.504;13.734;2023-02-13T05:32:55;11.65;;;8.45;;
16346;SDS011;8283;48.504;13.734;2023-02-13T05:35:40;12.38;;;8.13;;
16346;SDS011;8283;48.504;13.734;2023-02-13T05:38:25;11.57;;;8.45;;
16346;SDS011;8283;48.504;13.734;2023-02-13T05:41:10;11.98;;;8.20;;
16346;SDS011;8283;48.504;13.734;2023-02-13T05:43:56;12.10;;;8.13;;
16346;SDS011;8283;48.504;13.734;2023-02-13T05:46:41;10.98;;;7.50;;
16346;SDS011;8283;48.504;13.734;2023-02-13T05:49:28;13.23;;;7.85;;
16346;SDS011;8283;48.504;13.734;2023-02-13T05:52:13;14.50;;;8.70;;
16346;SDS011;8283;48.504;13.734;2023-02-13T05:54:58;13.45;;;7.85;;
16346;SDS011;8283;48.504;13.734;2023-02-13T05:57:42;14.20;;;7.30;;
16346;SDS011;8283;48.504;13.734;2023-02-13T06:00:27;13.75;;;8.57;;
16346;SDS011;8283;48.504;13.734;2023-02-13T06:03:11;12.00;;;7.97;;
16346;SDS011;8283;48.504;13.734;2023-02-13T06:05:58;12.77;;;9.70;;
16346;SDS011;8283;48.504;13.734;2023-02-13T06:08:43;14.85;;;10.02;;
16346;SDS011;8283;48.504;13.734;2023-02-13T06:11:27;12.50;;;8.35;;
16346;SDS011;8283;48.504;13.734;2023-02-13T06:14:12;15.57;;;10.05;;
16346;SDS011;8283;48.504;13.734;2023-02-13T06:16:57;16.15;;;9.90;;
16346;SDS011;8283;48.504;13.734;2023-02-13T06:19:43;10.77;;;7.57;;
16346;SDS011;8283;48.504;13.734;2023-02-13T06:22:28;17.00;;;9.25;;
16346;SDS011;8283;48.504;13.734;2023-02-13T06:25:12;11.93;;;8.02;;
16346;SDS011;8283;48.504;13.734;2023-02-13T06:27:57;11.63;;;7.95;;
16346;SDS011;8283;48.504;13.734;2023-02-13T06:30:42;12.52;;;8.68;;
16346;SDS011;8283;48.504;13.734;2023-02-13T06:33:26;12.70;;;8.40;;
16346;SDS011;8283;48.504;13.734;2023-02-13T06:36:10;13.00;;;8.25;;
16346;SDS011;8283;48.504;13.734;2023-02-13T06:38:55;16.35;;;10.68;;
16346;SDS011;8283;48.504;13.734;2023-02-13T06:41:39;15.10;;;10.30;;
16346;SDS011;8283;48.504;13.734;2023-02-13T06:44:24;15.23;;;9.45;;
16346;SDS011;8283;48.504;13.734;2023-02-13T06:47:09;14.00;;;9.13;;
16346;SDS011;8283;48.504;13.734;2023-02-13T06:49:53;15.02;;;9.73;;
16346;SDS011;8283;48.504;13.734;2023-02-13T06:52:38;12.27;;;8.65;;
16346;SDS011;8283;48.504;13.734;2023-02-13T06:55:23;15.18;;;9.85;;
16346;SDS011;8283;48.504;13.734;2023-02-13T06:58:07;14.95;;;8.80;;
16346;SDS011;8283;48.504;13.734;2023-02-13T07:00:53;15.57;;;9.40;;
16346;SDS011;8283;48.504;13.734;2023-02-13T07:03:38;13.63;;;8.30;;
16346;SDS011;8283;48.504;13.734;2023-02-13T07:06:22;13.55;;;8.52;;
16346;SDS011;8283;48.504;13.734;2023-02-13T07:09:06;12.70;;;8.68;;
16346;SDS011;8283;48.504;13.734;2023-02-13T07:11:51;13.82;;;8.00;;
16346;SDS011;8283;48.504;13.734;2023-02-13T07:14:36;14.70;;;9.00;;
16346;SDS011;8283;48.504;13.734;2023-02-13T07:17:20;14.88;;;9.15;;
16346;SDS011;8283;48.504;13.734;2023-02-13T07:20:05;15.60;;;9.38;;
16346;SDS011;8283;48.504;13.734;2023-02-13T07:22:51;11.90;;;8.07;;
16346;SDS011;8283;48.504;13.734;2023-02-13T07:25:36;12.93;;;8.55;;
16346;SDS011;8283;48.504;13.734;2023-02-13T07:28:20;15.38;;;8.73;;
16346;SDS011;8283;48.504;13.734;2023-02-13T07:31:05;15.80;;;9.48;;
16346;SDS011;8283;48.504;13.734;2023-02-13T07:33:50;13.95;;;8.85;;
16346;SDS011;8283;48.504;13.734;2023-02-13T07:36:35;15.50;;;9.55;;
16346;SDS011;8283;48.504;13.734;2023-02-13T07:39:19;13.15;;;8.60;;
16346;SDS011;8283;48.504;13.734;2023-02-13T07:42:04;14.20;;;8.95;;
16346;SDS011;8283;48.504;13.734;2023-02-13T07:44:49;13.27;;;7.78;;
16346;SDS011;8283;48.504;13.734;2023-02-13T07:47:33;14.20;;;8.70;;
16346;SDS011;8283;48.504;13.734;2023-02-13T07:50:18;12.68;;;8.40;;
16346;SDS011;8283;48.504;13.734;2023-02-13T07:53:02;12.13;;;8.38;;
16346;SDS011;8283;48.504;13.734;2023-02-13T07:55:47;14.48;;;9.25;;
16346;SDS011;8283;48.504;13.734;2023-02-13T07:58:31;13.98;;;9.40;;
16346;SDS011;8283;48.504;13.734;2023-02-13T08:01:17;13.10;;;8.93;;
16346;SDS011;8283;48.504;13.734;2023-02-13T08:04:02;15.88;;;9.40;;
16346;SDS011;8283;48.504;13.734;2023-02-13T08:06:47;15.32;;;9.60;;
16346;SDS011;8283;48.504;13.734;2023-02-13T08:09:32;13.43;;;9.57;;
16346;SDS011;8283;48.504;13.734;2023-02-13T08:12:36;16.73;;;11.02;;
16346;SDS011;8283;48.504;13.734;2023-02-13T08:15:20;16.02;;;10.38;;
16346;SDS011;8283;48.504;13.734;2023-02-13T08:18:05;15.30;;;10.35;;
16346;SDS011;8283;48.504;13.734;2023-02-13T08:20:49;14.95;;;10.18;;
16346;SDS011;8283;48.504;13.734;2023-02-13T08:23:34;15.43;;;10.55;;
16346;SDS011;8283;48.504;13.734;2023-02-13T08:26:18;14.15;;;10.05;;
16346;SDS011;8283;48.504;13.734;2023-02-13T08:29:03;17.48;;;10.25;;
16346;SDS011;8283;48.504;13.734;2023-02-13T08:31:48;14.50;;;9.48;;
16346;SDS011;8283;48.504;13.734;2023-02-13T08:34:32;15.45;;;9.55;;
16346;SDS011;8283;48.504;13.734;2023-02-13T08:37:17;16.67;;;10.93;;
16346;SDS011;8283;48.504;13.734;2023-02-13T08:40:01;17.13;;;11.15;;
16346;SDS011;8283;48.504;13.734;2023-02-13T08:42:47;20.15;;;10.68;;
16346;SDS011;8283;48.504;13.734;2023-02-13T08:45:31;24.90;;;12.57;;
16346;SDS011;8283;48.504;13.734;2023-02-13T08:48:16;19.40;;;11.30;;
16346;SDS011;8283;48.504;13.734;2023-02-13T08:51:04;17.35;;;10.95;;
16346;SDS011;8283;48.504;13.734;2023-02-13T08:53:52;24.08;;;13.05;;
16346;SDS011;8283;48.504;13.734;2023-02-13T08:56:37;16.77;;;10.07;;
16346;SDS011;8283;48.504;13.734;2023-02-13T08:59:21;20.70;;;11.45;;
16346;SDS011;8283;48.504;13.734;2023-02-13T09:02:08;20.50;;;11.40;;
16346;SDS011;8283;48.504;13.734;2023-02-13T09:04:55;19.02;;;11.52;;
16346;SDS011;8283;48.504;13.734;2023-02-13T09:07:40;16.42;;;10.70;;
16346;SDS011;8283;48.504;13.734;2023-02-13T09:10:24;17.60;;;10.10;;
16346;SDS011;8283;48.504;13.734;2023-02-13T09:13:09;18.00;;;12.27;;
16346;SDS011;8283;48.504;13.734;2023-02-13T09:15:58;17.50;;;11.23;;
16346;SDS011;8283;48.504;13.734;2023-02-13T09:18:45;15.20;;;10.63;;
16346;SDS011;8283;48.504;13.734;2023-02-13T09:21:31;15.73;;;10.25;;
16346;SDS011;8283;48.504;13.734;2023-02-13T09:24:15;14.80;;;9.50;;
16346;SDS011;8283;48.504;13.734;2023-02-13T09:27:00;16.13;;;10.68;;
16346;SDS011;8283;48.504;13.734;2023-02-13T09:29:44;18.83;;;11.27;;
16346;SDS011;8283;48.504;13.734;2023-02-13T09:32:28;18.17;;;10.15;;
16346;SDS011;8283;48.504;13.734;2023-02-13T09:35:13;15.45;;;10.63;;
16346;SDS011;8283;48.504;13.734;2023-02-13T09:37:59;17.02;;;10.63;;
16346;SDS011;8283;48.504;13.734;2023-02-13T09:40:53;16.55;;;10.40;;
16346;SDS011;8283;48.504;13.734;2023-02-13T09:43:45;14.10;;;9.23;;
16346;SDS011;8283;48.504;13.734;2023-02-13T09:46:38;15.27;;;10.60;;
16346;SDS011;8283;48.504;13.734;2023-02-13T09:49:24;15.07;;;9.02;;
16346;SDS011;8283;48.504;13.734;2023-02-13T09:52:13;16.23;;;10.15;;
16346;SDS011;8283;48.504;13.734;2023-02-13T09:54:57;16.15;;;10.45;;
16346;SDS011;8283;48.504;13.734;2023-02-13T09:57:45;16.27;;;10.77;;
16346;SDS011;8283;48.504;13.734;2023-02-13T10:00:45;16.10;;;10.88;;
16346;SDS011;8283;48.504;13.734;2023-02-13T10:03:44;16.10;;;10.68;;
16346;SDS011;8283;48.504;13.734;2023-02-13T10:06:38;15.43;;;9.43;;
16346;SDS011;8283;48.504;13.734;2023-02-13T10:18:44;19.25;;;11.32;;
16346;SDS011;8283;48.504;13.734;2023-02-13T10:21:32;15.57;;;10.05;;
16346;SDS011;8283;48.504;13.734;2023-02-13T10:30:19;16.83;;;11.13;;
16346;SDS011;8283;48.504;13.734;2023-02-13T10:39:11;17.90;;;12.18;;
16346;SDS011;8283;48.504;13.734;2023-02-13T10:51:05;18.65;;;12.70;;
16346;SDS011;8283;48.504;13.734;2023-02-13T10:57:13;18.38;;;11.90;;
16346;SDS011;8283;48.504;13.734;2023-02-13T11:03:00;17.55;;;10.77;;
16346;SDS011;8283;48.504;13.734;2023-02-13T11:05:45;19.80;;;12.20;;
16346;SDS011;8283;48.504;13.734;2023-02-13T11:08:32;23.17;;;13.25;;
16346;SDS011;8283;48.504;13.734;2023-02-13T11:14:41;20.10;;;13.35;;
16346;SDS011;8283;48.504;13.734;2023-02-13T11:17:38;19.05;;;12.75;;
16346;SDS011;8283;48.504;13.734;2023-02-13T11:20:31;17.58;;;11.45;;
16346;SDS011;8283;48.504;13.734;2023-02-13T11:23:27;17.65;;;11.63;;
16346;SDS011;8283;48.504;13.734;2023-02-13T11:26:21;18.33;;;11.85;;
16346;SDS011;8283;48.504;13.734;2023-02-13T11:29:49;19.58;;;11.80;;
16346;SDS011;8283;48.504;13.734;2023-02-13T11:32:25;16.15;;;10.95;;
16346;SDS011;8283;48.504;13.734;2023-02-13T11:35:20;17.45;;;11.52;;
16346;SDS011;8283;48.504;13.734;2023-02-13T11:41:09;19.42;;;11.52;;
16346;SDS011;8283;48.504;13.734;2023-02-13T11:44:00;19.60;;;11.38;;
16346;SDS011;8283;48.504;13.734;2023-02-13T11:46:47;20.23;;;12.68;;
16346;SDS011;8283;48.504;13.734;2023-02-13T11:49:35;17.17;;;11.63;;
16346;SDS011;8283;48.504;13.734;2023-02-13T11:52:25;15.98;;;10.40;;
16346;SDS011;8283;48.504;13.734;2023-02-13T11:55:26;16.67;;;11.05;;
16346;SDS011;8283;48.504;13.734;2023-02-13T11:58:24;15.13;;;10.18;;
16346;SDS011;8283;48.504;13.734;2023-02-13T12:01:22;19.45;;;12.30;;
16346;SDS011;8283;48.504;13.734;2023-02-13T12:04:15;19.95;;;12.40;;
16346;SDS011;8283;48.504;13.734;2023-02-13T12:07:02;21.45;;;13.05;;
16346;SDS011;8283;48.504;13.734;2023-02-13T12:09:59;20.20;;;12.98;;
16346;SDS011;8283;48.504;13.734;2023-02-13T12:13:12;23.30;;;13.60;;
16346;SDS011;8283;48.504;13.734;2023-02-13T12:16:20;21.67;;;13.23;;
16346;SDS011;8283;48.504;13.734;2023-02-13T12:19:23;21.08;;;13.65;;
16346;SDS011;8283;48.504;13.734;2023-02-13T12:37:55;18.15;;;10.90;;
16346;SDS011;8283;48.504;13.734;2023-02-13T12:41:00;16.70;;;11.55;;
16346;SDS011;8283;48.504;13.734;2023-02-13T12:47:17;17.02;;;10.38;;
16346;SDS011;8283;48.504;13.734;2023-02-13T12:53:20;19.85;;;11.98;;
16346;SDS011;8283;48.504;13.734;2023-02-13T13:03:24;18.35;;;11.95;;
16346;SDS011;8283;48.504;13.734;2023-02-13T13:09:44;18.02;;;12.02;;
16346;SDS011;8283;48.504;13.734;2023-02-13T13:19:02;17.92;;;11.95;;
16346;SDS011;8283;48.504;13.734;2023-02-13T13:21:59;23.88;;;13.48;;
16346;SDS011;8283;48.504;13.734;2023-02-13T13:25:09;19.85;;;12.13;;
16346;SDS011;8283;48.504;13.734;2023-02-13T13:28:14;18.58;;;11.32;;
16346;SDS011;8283;48.504;13.734;2023-02-13T13:31:02;19.20;;;12.40;;
16346;SDS011;8283;48.504;13.734;2023-02-13T13:33:46;19.02;;;12.13;;
16346;SDS011;8283;48.504;13.734;2023-02-13T13:39:45;19.83;;;12.95;;
16346;SDS011;8283;48.504;13.734;2023-02-13T13:46:16;18.08;;;11.63;;
16346;SDS011;8283;48.504;13.734;2023-02-13T13:49:19;19.65;;;12.63;;
16346;SDS011;8283;48.504;13.734;2023-02-13T13:52:24;18.23;;;12.05;;
16346;SDS011;8283;48.504;13.734;2023-02-13T13:58:36;17.88;;;12.13;;
16346;SDS011;8283;48.504;13.734;2023-02-13T14:01:33;18.42;;;12.48;;
16346;SDS011;8283;48.504;13.734;2023-02-13T14:07:19;19.08;;;13.10;;
16346;SDS011;8283;48.504;13.734;2023-02-13T14:13:27;17.75;;;12.20;;
16346;SDS011;8283;48.504;13.734;2023-02-13T14:19:29;17.60;;;11.77;;
16346;SDS011;8283;48.504;13.734;2023-02-13T14:22:25;17.40;;;11.57;;
16346;SDS011;8283;48.504;13.734;2023-02-13T14:25:20;17.48;;;11.73;;
16346;SDS011;8283;48.504;13.734;2023-02-13T14:28:14;20.13;;;12.40;;
16346;SDS011;8283;48.504;13.734;2023-02-13T14:31:04;19.65;;;13.02;;
16346;SDS011;8283;48.504;13.734;2023-02-13T14:33:53;17.08;;;11.90;;
16346;SDS011;8283;48.504;13.734;2023-02-13T14:36:46;18.63;;;12.45;;
16346;SDS011;8283;48.504;13.734;2023-02-13T14:43:36;18.65;;;12.38;;
16346;SDS011;8283;48.504;13.734;2023-02-13T14:52:07;17.67;;;12.10;;
16346;SDS011;8283;48.504;13.734;2023-02-13T14:55:03;17.48;;;12.20;;
16346;SDS011;8283;48.504;13.734;2023-02-13T14:57:51;18.35;;;13.18;;
16346;SDS011;8283;48.504;13.734;2023-02-13T15:00:45;21.08;;;14.15;;
16346;SDS011;8283;48.504;13.734;2023-02-13T15:06:35;22.13;;;13.75;;
16346;SDS011;8283;48.504;13.734;2023-02-13T15:12:24;17.60;;;12.13;;
16346;SDS011;8283;48.504;13.734;2023-02-13T15:15:23;18.45;;;12.13;;
16346;SDS011;8283;48.504;13.734;2023-02-13T15:18:23;19.65;;;13.38;;
16346;SDS011;8283;48.504;13.734;2023-02-13T15:21:14;20.63;;;13.27;;
16346;SDS011;8283;48.504;13.734;2023-02-13T15:24:00;18.42;;;13.23;;
16346;SDS011;8283;48.504;13.734;2023-02-13T15:26:48;21.40;;;13.68;;
16346;SDS011;8283;48.504;13.734;2023-02-13T15:29:38;17.77;;;11.82;;
16346;SDS011;8283;48.504;13.734;2023-02-13T15:32:38;22.00;;;13.00;;
16346;SDS011;8283;48.504;13.734;2023-02-13T15:38:30;20.10;;;13.13;;
16346;SDS011;8283;48.504;13.734;2023-02-13T15:41:17;20.30;;;13.70;;
16346;SDS011;8283;48.504;13.734;2023-02-13T15:44:04;20.17;;;13.48;;
16346;SDS011;8283;48.504;13.734;2023-02-13T15:46:50;19.00;;;13.60;;
16346;SDS011;8283;48.504;13.734;2023-02-13T15:49:38;20.83;;;13.73;;
16346;SDS011;8283;48.504;13.734;2023-02-13T15:52:28;17.30;;;12.48;;
16346;SDS011;8283;48.504;13.734;2023-02-13T15:55:23;19.83;;;13.13;;
16346;SDS011;8283;48.504;13.734;2023-02-13T15:58:10;17.83;;;12.30;;
16346;SDS011;8283;48.504;13.734;2023-02-13T16:01:02;22.40;;;14.65;;
16346;SDS011;8283;48.504;13.734;2023-02-13T16:03:59;22.58;;;13.68;;
16346;SDS011;8283;48.504;13.734;2023-02-13T16:06:47;20.38;;;14.18;;
16346;SDS011;8283;48.504;13.734;2023-02-13T16:09:34;24.50;;;14.70;;
16346;SDS011;8283;48.504;13.734;2023-02-13T16:12:23;18.20;;;12.85;;
16346;SDS011;8283;48.504;13.734;2023-02-13T16:15:14;19.30;;;13.45;;
16346;SDS011;8283;48.504;13.734;2023-02-13T16:20:46;20.02;;;12.40;;
16346;SDS011;8283;48.504;13.734;2023-02-13T16:23:37;22.55;;;14.57;;
16346;SDS011;8283;48.504;13.734;2023-02-13T16:26:22;21.88;;;13.30;;
16346;SDS011;8283;48.504;13.734;2023-02-13T16:29:08;19.55;;;13.98;;
16346;SDS011;8283;48.504;13.734;2023-02-13T16:32:02;21.23;;;12.27;;
16346;SDS011;8283;48.504;13.734;2023-02-13T16:34:49;17.52;;;11.80;;
16346;SDS011;8283;48.504;13.734;2023-02-13T16:37:46;17.27;;;11.68;;
16346;SDS011;8283;48.504;13.734;2023-02-13T16:40:38;18.05;;;11.77;;
16346;SDS011;8283;48.504;13.734;2023-02-13T16:49:25;14.40;;;8.95;;
16346;SDS011;8283;48.504;13.734;2023-02-13T16:52:19;14.52;;;9.45;;
16346;SDS011;8283;48.504;13.734;2023-02-13T16:55:13;14.23;;;9.30;;
16346;SDS011;8283;48.504;13.734;2023-02-13T16:58:00;16.23;;;10.23;;
16346;SDS011;8283;48.504;13.734;2023-02-13T17:00:49;18.08;;;11.32;;
16346;SDS011;8283;48.504;13.734;2023-02-13T17:03:33;17.75;;;11.85;;
16346;SDS011;8283;48.504;13.734;2023-02-13T17:06:17;19.80;;;12.43;;
16346;SDS011;8283;48.504;13.734;2023-02-13T17:09:02;18.85;;;12.52;;
16346;SDS011;8283;48.504;13.734;2023-02-13T17:11:50;16.77;;;11.57;;
16346;SDS011;8283;48.504;13.734;2023-02-13T17:14:35;19.75;;;11.82;;
16346;SDS011;8283;48.504;13.734;2023-02-13T17:17:20;16.60;;;10.80;;
16346;SDS011;8283;48.504;13.734;2023-02-13T17:20:06;15.82;;;11.55;;
16346;SDS011;8283;48.504;13.734;2023-02-13T17:22:56;11.35;;;8.07;;
16346;SDS011;8283;48.504;13.734;2023-02-13T17:25:43;11.35;;;7.13;;
16346;SDS011;8283;48.504;13.734;2023-02-13T17:28:30;9.77;;;6.95;;
16346;SDS011;8283;48.504;13.734;2023-02-13T17:31:15;9.27;;;6.65;;
16346;SDS011;8283;48.504;13.734;2023-02-13T17:33:59;10.27;;;7.50;;
16346;SDS011;8283;48.504;13.734;2023-02-13T17:36:44;13.00;;;8.48;;
16346;SDS011;8283;48.504;13.734;2023-02-13T17:39:33;14.55;;;9.27;;
16346;SDS011;8283;48.504;13.734;2023-02-13T17:42:19;11.63;;;8.50;;
16346;SDS011;8283;48.504;13.734;2023-02-13T17:45:06;11.25;;;7.80;;
16346;SDS011;8283;48.504;13.734;2023-02-13T17:47:51;12.93;;;8.48;;
16346;SDS011;8283;48.504;13.734;2023-02-13T17:50:35;11.90;;;7.80;;
16346;SDS011;8283;48.504;13.734;2023-02-13T17:53:22;13.43;;;8.13;;
16346;SDS011;8283;48.504;13.734;2023-02-13T17:56:09;13.68;;;9.13;;
16346;SDS011;8283;48.504;13.734;2023-02-13T17:58:53;11.52;;;7.35;;
16346;SDS011;8283;48.504;13.734;2023-02-13T18:01:38;11.32;;;7.32;;
16346;SDS011;8283;48.504;13.734;2023-02-13T18:04:22;11.18;;;7.22;;
16346;SDS011;8283;48.504;13.734;2023-02-13T18:07:08;12.23;;;8.00;;
16346;SDS011;8283;48.504;13.734;2023-02-13T18:09:53;11.63;;;8.15;;
16346;SDS011;8283;48.504;13.734;2023-02-13T18:12:38;12.90;;;8.75;;
16346;SDS011;8283;48.504;13.734;2023-02-13T18:15:23;10.75;;;7.65;;
16346;SDS011;8283;48.504;13.734;2023-02-13T18:18:08;10.98;;;6.78;;
16346;SDS011;8283;48.504;13.734;2023-02-13T18:20:54;9.30;;;6.60;;
16346;SDS011;8283;48.504;13.734;2023-02-13T18:23:39;13.93;;;7.30;;
16346;SDS011;8283;48.504;13.734;2023-02-13T18:26:23;14.93;;;8.57;;
16346;SDS011;8283;48.504;13.734;2023-02-13T18:29:08;11.45;;;7.68;;
16346;SDS011;8283;48.504;13.734;2023-02-13T18:31:53;10.43;;;7.18;;
16346;SDS011;8283;48.504;13.734;2023-02-13T18:34:38;11.85;;;7.65;;
16346;SDS011;8283;48.504;13.734;2023-02-13T18:37:23;10.38;;;7.05;;
16346;SDS011;8283;48.504;13.734;2023-02-13T18:40:11;9.48;;;6.13;;
16346;SDS011;8283;48.504;13.734;2023-02-13T18:43:01;9.18;;;5.90;;
16346;SDS011;8283;48.504;13.734;2023-02-13T18:45:46;10.43;;;6.45;;
16346;SDS011;8283;48.504;13.734;2023-02-13T18:48:30;14.10;;;7.93;;
16346;SDS011;8283;48.504;13.734;2023-02-13T18:51:15;14.75;;;10.43;;
16346;SDS011;8283;48.504;13.734;2023-02-13T18:53:59;13.25;;;8.73;;
16346;SDS011;8283;48.504;13.734;2023-02-13T18:56:44;10.18;;;6.85;;
16346;SDS011;8283;48.504;13.734;2023-02-13T18:59:29;10.48;;;6.75;;
16346;SDS011;8283;48.504;13.734;2023-02-13T19:02:13;10.27;;;6.78;;
16346;SDS011;8283;48.504;13.734;2023-02-13T19:04:57;10.93;;;7.38;;
16346;SDS011;8283;48.504;13.734;2023-02-13T19:07:42;11.50;;;7.72;;
16346;SDS011;8283;48.504;13.734;2023-02-13T19:10:27;15.45;;;8.75;;
16346;SDS011;8283;48.504;13.734;2023-02-13T19:13:11;11.02;;;7.07;;
16346;SDS011;8283;48.504;13.734;2023-02-13T19:15:56;7.65;;;5.25;;
16346;SDS011;8283;48.504;13.734;2023-02-13T19:18:52;9.57;;;6.18;;
16346;SDS011;8283;48.504;13.734;2023-02-13T19:21:38;11.77;;;7.47;;
16346;SDS011;8283;48.504;13.734;2023-02-13T19:24:22;8.85;;;5.80;;
16346;SDS011;8283;48.504;13.734;2023-02-13T19:27:07;7.65;;;5.00;;
16346;SDS011;8283;48.504;13.734;2023-02-13T19:29:53;8.77;;;6.05;;
16346;SDS011;8283;48.504;13.734;2023-02-13T19:32:38;8.00;;;5.90;;